createdAt,value
2019-02-26T00:02:02.707Z,103114.02
2019-02-26T00:04:35.034Z,103122.75
2019-02-26T00:07:06.073Z,103118.11
2019-02-26T00:09:36.665Z,103116.39
2019-02-26T00:12:07.265Z,103118.80
2019-02-26T00:14:37.817Z,103120.75
2019-02-26T00:17:10.615Z,103123.98
2019-02-26T00:19:40.627Z,103131.42
2019-02-26T00:22:12.039Z,103134.75
2019-02-26T00:24:44.397Z,103127.53
2019-02-26T00:27:15.868Z,103122.70
2019-02-26T00:29:48.636Z,103122.63
2019-02-26T00:32:18.786Z,103122.23
2019-02-26T00:34:49.441Z,103115.23
2019-02-26T00:37:22.014Z,103135.27
2019-02-26T00:39:54.050Z,103143.64
2019-02-26T00:42:26.408Z,103136.31
2019-02-26T00:44:58.299Z,103138.05
2019-02-26T00:47:31.812Z,103138.13
2019-02-26T00:50:01.581Z,103126.31
2019-02-26T00:52:32.658Z,103126.73
2019-02-26T00:55:05.391Z,103123.61
2019-02-26T00:57:38.806Z,103112.63
2019-02-26T01:00:12.803Z,103112.62
2019-02-26T01:02:43.494Z,103113.12
2019-02-26T01:05:16.273Z,103121.54
2019-02-26T01:07:49.479Z,103118.20
2019-02-26T01:10:21.204Z,103129.25
2019-02-26T01:12:51.740Z,103128.92
2019-02-26T01:15:22.434Z,103122.91
2019-02-26T01:17:55.000Z,103118.59
2019-02-26T01:20:27.471Z,103108.61
2019-02-26T01:22:57.561Z,103106.47
2019-02-26T01:25:28.167Z,103106.42
2019-02-26T01:28:00.430Z,103110.29
2019-02-26T01:30:33.629Z,103110.48
2019-02-26T01:33:05.567Z,103120.95
2019-02-26T01:35:37.776Z,103125.44
2019-02-26T01:38:08.029Z,103117.72
2019-02-26T01:40:41.520Z,103115.13
2019-02-26T01:43:10.832Z,103122.19
2019-02-26T01:45:41.459Z,103121.38
2019-02-26T01:48:16.159Z,103129.76
2019-02-26T01:50:44.282Z,103108.06
2019-02-26T01:53:16.927Z,103097.16
2019-02-26T01:55:48.383Z,103104.31
2019-02-26T01:58:19.625Z,103099.18
2019-02-26T02:00:50.226Z,103093.65
2019-02-26T02:03:22.690Z,103089.92
2019-02-26T02:05:54.788Z,103095.41
2019-02-26T02:08:25.572Z,103083.34
2019-02-26T02:10:58.916Z,103085.41
2019-02-26T02:13:28.761Z,103088.97
2019-02-26T02:16:02.137Z,103102.38
2019-02-26T02:18:32.899Z,103107.94
2019-02-26T02:21:03.485Z,103105.31
2019-02-26T02:23:33.991Z,103114.36
2019-02-26T02:26:06.618Z,103101.70
2019-02-26T02:28:36.818Z,103101.64
2019-02-26T02:31:07.434Z,103094.15
2019-02-26T02:33:38.046Z,103095.84
2019-02-26T02:36:09.725Z,103091.45
2019-02-26T02:38:40.814Z,103093.56
2019-02-26T02:41:11.429Z,103099.27
2019-02-26T02:43:41.985Z,103108.36
2019-02-26T02:46:12.562Z,103096.72
2019-02-26T02:48:43.133Z,103094.94
2019-02-26T02:51:14.011Z,103091.88
2019-02-26T02:53:45.736Z,103080.53
2019-02-26T02:56:17.975Z,103075.64
2019-02-26T02:58:51.407Z,103082.99
2019-02-26T03:01:22.970Z,103072.97
2019-02-26T03:03:55.870Z,103081.27
2019-02-26T03:06:28.091Z,103070.92
2019-02-26T03:08:57.765Z,103065.15
2019-02-26T03:11:28.332Z,103061.64
2019-02-26T03:13:58.837Z,103063.44
2019-02-26T03:16:29.432Z,103062.81
2019-02-26T03:18:59.942Z,103073.30
2019-02-26T03:21:30.752Z,103080.29
2019-02-26T03:24:03.508Z,103085.38
2019-02-26T03:26:33.587Z,103089.69
2019-02-26T03:29:04.111Z,103090.13
2019-02-26T03:31:39.698Z,103089.64
2019-02-26T03:34:10.609Z,103092.14
2019-02-26T03:36:40.828Z,103093.35
2019-02-26T03:39:11.424Z,103098.92
2019-02-26T03:41:43.258Z,103101.48
2019-02-26T03:44:14.374Z,103091.37
2019-02-26T03:46:44.918Z,103083.06
2019-02-26T03:49:15.453Z,103094.75
2019-02-26T03:51:46.018Z,103089.06
2019-02-26T03:54:16.592Z,103088.66
2019-02-26T03:56:47.200Z,103089.55
2019-02-26T03:59:17.856Z,103092.20
2019-02-26T04:01:48.387Z,103089.56
2019-02-26T04:04:20.719Z,103083.95
2019-02-26T04:06:51.220Z,103085.58
2019-02-26T04:09:22.045Z,103082.92
2019-02-26T04:11:53.411Z,103086.86
2019-02-26T04:14:27.725Z,103082.98
2019-02-26T04:16:58.668Z,103076.67
2019-02-26T04:19:29.427Z,103080.27
2019-02-26T04:22:28.352Z,103088.66
2019-02-26T04:25:09.236Z,103096.05
2019-02-26T04:28:52.451Z,103099.88
2019-02-26T04:32:18.984Z,103086.77
2019-02-26T04:35:21.029Z,103101.03
2019-02-26T04:38:48.300Z,103103.20
2019-02-26T04:42:08.437Z,103098.32
2019-02-26T04:45:35.187Z,103090.77
2019-02-26T04:48:05.737Z,103082.46
2019-02-26T04:50:38.614Z,103076.12
2019-02-26T04:53:10.944Z,103073.02
2019-02-26T04:55:41.374Z,103065.02
2019-02-26T04:58:15.580Z,103061.02
2019-02-26T05:00:47.365Z,103062.57
2019-02-26T05:03:20.074Z,103069.88
2019-02-26T05:05:53.722Z,103067.52
2019-02-26T05:08:22.305Z,103063.38
2019-02-26T05:10:56.845Z,103062.73
2019-02-26T05:13:27.484Z,103056.81
2019-02-26T05:15:58.753Z,103064.38
2019-02-26T05:18:31.947Z,103065.11
2019-02-26T05:21:02.747Z,103060.51
2019-02-26T05:23:33.735Z,103050.70
2019-02-26T05:26:05.625Z,103047.72
2019-02-26T05:28:37.899Z,103047.31
2019-02-26T05:31:11.258Z,103044.02
2019-02-26T05:33:41.022Z,103039.77
2019-02-26T05:36:14.228Z,103039.94
2019-02-26T05:38:44.073Z,103053.64
2019-02-26T05:41:14.531Z,103043.75
2019-02-26T05:43:49.445Z,103044.07
2019-02-26T05:46:19.561Z,103046.56
2019-02-26T05:48:51.184Z,103047.44
2019-02-26T05:51:21.680Z,103049.41
2019-02-26T05:53:52.182Z,103048.20
2019-02-26T05:56:22.938Z,103048.88
2019-02-26T05:58:53.373Z,103053.31
2019-02-26T06:01:24.958Z,103046.85
2019-02-26T06:03:56.181Z,103048.43
2019-02-26T06:06:26.705Z,103038.48
2019-02-26T06:08:58.012Z,103041.41
2019-02-26T06:11:33.205Z,103047.34
2019-02-26T06:14:06.612Z,103048.02
2019-02-26T06:16:34.004Z,103049.09
2019-02-26T06:19:08.323Z,103047.01
2019-02-26T06:21:41.773Z,103045.70
2019-02-26T06:24:10.769Z,103045.70
2019-02-26T06:26:43.075Z,103046.99
2019-02-26T06:29:13.517Z,103052.21
2019-02-26T06:31:45.080Z,103052.68
2019-02-26T06:34:17.773Z,103056.48
2019-02-26T06:36:49.291Z,103054.27
2019-02-26T06:39:24.221Z,103064.22
2019-02-26T06:41:52.863Z,103064.23
2019-02-26T06:44:23.415Z,103060.31
2019-02-26T06:46:53.904Z,103066.00
2019-02-26T06:49:24.585Z,103066.41
2019-02-26T06:51:56.506Z,103072.52
2019-02-26T06:54:28.937Z,103068.58
2019-02-26T06:56:59.258Z,103062.90
2019-02-26T06:59:34.907Z,103065.00
2019-02-26T07:02:05.382Z,103061.03
2019-02-26T07:04:35.913Z,103073.06
2019-02-26T07:07:09.952Z,103080.84
2019-02-26T07:09:39.610Z,103077.03
2019-02-26T07:12:11.055Z,103078.34
2019-02-26T07:14:41.589Z,103079.64
2019-02-26T07:17:12.040Z,103072.23
2019-02-26T07:19:42.627Z,103080.84
2019-02-26T07:22:13.522Z,103075.98
2019-02-26T07:24:48.278Z,103073.83
2019-02-26T07:27:17.692Z,103079.78
2019-02-26T07:29:52.268Z,103069.73
2019-02-26T07:32:22.227Z,103079.12
2019-02-26T07:34:52.789Z,103080.72
2019-02-26T07:37:23.242Z,103084.14
2019-02-26T07:39:53.715Z,103087.06
2019-02-26T07:42:24.236Z,103078.94
2019-02-26T07:44:54.753Z,103073.39
2019-02-26T07:47:26.522Z,103056.27
2019-02-26T07:50:00.819Z,103058.36
2019-02-26T07:52:31.256Z,103061.11
2019-02-26T07:55:03.751Z,103056.45
2019-02-26T07:57:34.243Z,103049.91
2019-02-26T08:00:05.828Z,103052.91
2019-02-26T08:02:37.291Z,103054.83
2019-02-26T08:05:08.889Z,103043.57
2019-02-26T08:07:39.435Z,103039.91
2019-02-26T08:10:14.990Z,103041.88
2019-02-26T08:12:46.676Z,103049.92
2019-02-26T08:15:17.799Z,103038.02
2019-02-26T08:17:50.508Z,103051.27
2019-02-26T08:20:20.421Z,103052.39
2019-02-26T08:22:51.605Z,103048.66
2019-02-26T08:25:23.203Z,103054.36
2019-02-26T08:27:55.945Z,103058.41
2019-02-26T08:30:26.171Z,103064.39
2019-02-26T08:32:58.912Z,103062.78
2019-02-26T08:35:28.911Z,103057.25
2019-02-26T08:37:59.517Z,103051.30
2019-02-26T08:40:30.047Z,103047.17
2019-02-26T08:43:00.563Z,103042.09
2019-02-26T08:45:31.303Z,103031.54
2019-02-26T08:48:01.844Z,103026.77
2019-02-26T08:50:33.469Z,103028.62
2019-02-26T08:53:04.599Z,103017.95
2019-02-26T08:55:35.064Z,103024.85
2019-02-26T08:58:07.689Z,103032.05
2019-02-26T09:00:39.005Z,103024.15
2019-02-26T09:03:10.851Z,103022.60
2019-02-26T09:05:41.722Z,103020.05
2019-02-26T09:08:14.015Z,103020.39
2019-02-26T09:10:46.319Z,103024.71
2019-02-26T09:13:18.580Z,103026.17
2019-02-26T09:15:48.899Z,103030.28
2019-02-26T09:18:20.511Z,103033.41
2019-02-26T09:20:51.544Z,103033.31
2019-02-26T09:23:23.540Z,103030.43
2019-02-26T09:25:56.995Z,103027.50
2019-02-26T09:28:27.166Z,103030.86
2019-02-26T09:31:01.350Z,103038.48
2019-02-26T09:33:33.002Z,103036.37
2019-02-26T09:36:03.095Z,103042.50
2019-02-26T09:38:33.589Z,103042.31
2019-02-26T09:41:04.136Z,103041.47
2019-02-26T09:43:36.186Z,103048.94
2019-02-26T09:46:09.195Z,103041.34
2019-02-26T09:48:41.100Z,103046.83
2019-02-26T09:51:12.279Z,103039.91
2019-02-26T09:53:43.394Z,103033.73
2019-02-26T09:56:13.919Z,103032.02
2019-02-26T09:58:46.500Z,103033.91
2019-02-26T10:01:18.042Z,103046.27
2019-02-26T10:03:48.642Z,103050.59
2019-02-26T10:06:21.633Z,103050.98
2019-02-26T10:08:53.306Z,103052.87
2019-02-26T10:11:26.114Z,103057.63
2019-02-26T10:13:56.929Z,103060.37
2019-02-26T10:16:28.243Z,103060.82
2019-02-26T10:18:59.691Z,103058.08
2019-02-26T10:21:33.077Z,103054.06
2019-02-26T10:24:04.506Z,103055.77
2019-02-26T10:26:36.634Z,103058.92
2019-02-26T10:29:07.990Z,103061.05
2019-02-26T10:31:41.085Z,103056.34
2019-02-26T10:34:13.326Z,103054.37
2019-02-26T10:36:46.278Z,103061.34
2019-02-26T10:39:15.641Z,103065.06
2019-02-26T10:41:47.250Z,103060.02
2019-02-26T10:44:17.754Z,103060.72
2019-02-26T10:46:48.222Z,103060.50
2019-02-26T10:49:18.731Z,103060.95
2019-02-26T10:51:49.173Z,103066.70
2019-02-26T10:54:19.663Z,103065.72
2019-02-26T10:56:50.156Z,103061.47
2019-02-26T10:59:20.629Z,103059.15
2019-02-26T11:01:54.730Z,103064.81
2019-02-26T11:04:23.400Z,103065.23
2019-02-26T11:06:53.862Z,103068.70
2019-02-26T11:09:28.676Z,103068.28
2019-02-26T11:11:58.387Z,103071.25
2019-02-26T11:14:31.200Z,103073.37
2019-02-26T11:17:01.229Z,103072.30
2019-02-26T11:19:33.836Z,103074.47
2019-02-26T11:22:04.347Z,103070.39
2019-02-26T11:24:36.208Z,103068.64
2019-02-26T11:27:06.872Z,103074.12
2019-02-26T11:29:38.772Z,103071.06
2019-02-26T11:32:10.281Z,103072.56
2019-02-26T11:34:41.751Z,103072.19
2019-02-26T11:37:12.202Z,103059.46
2019-02-26T11:39:42.724Z,103056.89
2019-02-26T11:42:13.240Z,103054.00
2019-02-26T11:44:43.712Z,103060.09
2019-02-26T11:47:16.089Z,103068.32
2019-02-26T11:49:46.787Z,103072.45
2019-02-26T11:52:19.651Z,103070.13
2019-02-26T11:54:49.572Z,103073.08
2019-02-26T11:57:20.061Z,103071.84
2019-02-26T11:59:50.552Z,103066.69
2019-02-26T12:02:26.691Z,103060.94
2019-02-26T12:04:54.900Z,103065.23
2019-02-26T12:07:27.286Z,103052.95
2019-02-26T12:09:58.419Z,103049.04
2019-02-26T12:12:31.142Z,103051.97
2019-02-26T12:15:04.087Z,103047.52
2019-02-26T12:17:35.947Z,103051.42
2019-02-26T12:20:09.419Z,103052.97
2019-02-26T12:22:41.183Z,103048.97
2019-02-26T12:25:12.909Z,103034.87
2019-02-26T12:27:45.524Z,103039.07
2019-02-26T12:30:20.689Z,103027.91
2019-02-26T12:32:53.046Z,103026.21
2019-02-26T12:35:23.524Z,103022.53
2019-02-26T12:37:56.666Z,103013.34
2019-02-26T12:40:26.352Z,103006.88
2019-02-26T12:42:56.893Z,103004.75
2019-02-26T12:45:28.549Z,103008.34
2019-02-26T12:47:59.832Z,103005.77
2019-02-26T12:50:32.749Z,102998.84
2019-02-26T12:53:02.410Z,103007.47
2019-02-26T12:55:35.856Z,103007.23
2019-02-26T12:58:05.377Z,102999.34
2019-02-26T13:00:38.353Z,103000.71
2019-02-26T13:03:09.320Z,102991.67
2019-02-26T13:05:42.196Z,102988.06
2019-02-26T13:08:16.373Z,102985.73
2019-02-26T13:10:47.392Z,102984.70
2019-02-26T13:13:17.050Z,102972.42
2019-02-26T13:15:47.472Z,102962.11
2019-02-26T13:18:17.922Z,102959.14
2019-02-26T13:20:52.162Z,102960.88
2019-02-26T13:23:21.863Z,102959.41
2019-02-26T13:25:52.511Z,102953.95
2019-02-26T13:28:29.380Z,102962.21
2019-02-26T13:30:58.055Z,102959.68
2019-02-26T13:33:33.909Z,102956.69
2019-02-26T13:36:04.006Z,102957.52
2019-02-26T13:38:37.579Z,102950.88
2019-02-26T13:41:25.196Z,102950.66
2019-02-26T13:43:36.401Z,102943.92
2019-02-26T13:46:06.932Z,102948.37
2019-02-26T13:48:37.435Z,102941.49
2019-02-26T13:51:07.979Z,102939.95
2019-02-26T13:53:38.482Z,102938.56
2019-02-26T13:56:08.994Z,102938.69
2019-02-26T13:58:39.511Z,102929.86
2019-02-26T14:01:09.988Z,102928.13
2019-02-26T14:03:40.519Z,102920.17
2019-02-26T14:06:11.074Z,102916.09
2019-02-26T14:08:41.571Z,102916.50
2019-02-26T14:11:12.061Z,102922.27
2019-02-26T14:13:42.565Z,102922.70
2019-02-26T14:16:13.039Z,102918.83
2019-02-26T14:18:43.546Z,102911.50
2019-02-26T14:21:14.369Z,102910.40
2019-02-26T14:23:46.012Z,102907.52
2019-02-26T14:26:16.500Z,102909.74
2019-02-26T14:28:47.054Z,102898.22
2019-02-26T14:31:17.528Z,102904.98
2019-02-26T14:33:47.956Z,102896.05
2019-02-26T14:36:18.491Z,102896.38
2019-02-26T14:38:48.873Z,102892.80
2019-02-26T14:41:19.393Z,102892.89
2019-02-26T14:43:49.896Z,102888.17
2019-02-26T14:46:20.332Z,102901.77
2019-02-26T14:48:50.833Z,102901.67
2019-02-26T14:51:21.668Z,102906.20
2019-02-26T14:53:52.494Z,102899.94
2019-02-26T14:56:25.021Z,102901.59
2019-02-26T14:58:55.349Z,102902.84
2019-02-26T15:01:25.852Z,102900.52
2019-02-26T15:03:56.462Z,102891.44
2019-02-26T15:06:26.994Z,102892.95
2019-02-26T15:08:57.427Z,102890.89
2019-02-26T15:11:27.911Z,102895.70
2019-02-26T15:13:58.454Z,102894.37
2019-02-26T15:16:28.921Z,102897.20
2019-02-26T15:18:59.344Z,102902.23
2019-02-26T15:21:29.873Z,102898.08
2019-02-26T15:24:00.392Z,102894.86
2019-02-26T15:26:30.887Z,102896.73
2019-02-26T15:29:01.716Z,102899.77
2019-02-26T15:31:32.240Z,102905.74
2019-02-26T15:34:02.721Z,102914.75
2019-02-26T15:36:33.489Z,102900.22
2019-02-26T15:39:05.260Z,102905.06
2019-02-26T15:41:35.764Z,102906.48
2019-02-26T15:44:06.295Z,102905.13
2019-02-26T15:46:36.794Z,102909.08
2019-02-26T15:49:07.714Z,102901.03
2019-02-26T15:51:38.768Z,102907.95
2019-02-26T15:54:09.234Z,102904.23
2019-02-26T15:56:39.742Z,102906.80
2019-02-26T15:59:10.308Z,102903.16
2019-02-26T16:01:40.815Z,102911.35
2019-02-26T16:04:11.291Z,102904.06
2019-02-26T16:06:41.797Z,102909.22
2019-02-26T16:09:14.619Z,102910.28
2019-02-26T16:11:44.672Z,102906.47
2019-02-26T16:14:15.291Z,102906.72
2019-02-26T16:16:45.793Z,102910.00
2019-02-26T16:19:16.218Z,102918.34
2019-02-26T16:21:46.754Z,102921.77
2019-02-26T16:24:17.309Z,102916.98
2019-02-26T16:26:48.024Z,102911.89
2019-02-26T16:29:18.552Z,102919.94
2019-02-26T16:31:49.279Z,102924.55
2019-02-26T16:34:38.967Z,102915.25
2019-02-26T16:37:09.545Z,102918.69
2019-02-26T16:39:40.326Z,102910.98
2019-02-26T16:42:11.744Z,102912.84
2019-02-26T16:44:42.826Z,102921.28
2019-02-26T16:47:14.637Z,102916.25
2019-02-26T16:49:45.449Z,102922.16
2019-02-26T16:52:15.956Z,102917.95
2019-02-26T16:54:46.498Z,102923.71
2019-02-26T16:57:17.048Z,102921.81
2019-02-26T16:59:47.561Z,102913.11
2019-02-26T17:02:18.841Z,102919.71
2019-02-26T17:04:49.434Z,102927.73
2019-02-26T17:07:19.963Z,102937.16
2019-02-26T17:09:50.515Z,102939.44
2019-02-26T17:12:21.144Z,102941.47
2019-02-26T17:14:51.714Z,102934.87
2019-02-26T17:17:22.286Z,102938.44
2019-02-26T17:19:52.931Z,102945.91
2019-02-26T17:22:23.581Z,102943.41
2019-02-26T17:24:54.279Z,102932.88
2019-02-26T17:27:24.835Z,102942.55
2019-02-26T17:29:55.276Z,102943.90
2019-02-26T17:32:25.890Z,102945.70
2019-02-26T17:34:56.566Z,102943.04
2019-02-26T17:37:27.096Z,102947.30
2019-02-26T17:39:57.658Z,102947.27
2019-02-26T17:42:28.197Z,102946.42
2019-02-26T17:44:58.750Z,102942.52
2019-02-26T17:47:29.354Z,102945.78
2019-02-26T17:49:59.940Z,102943.20
2019-02-26T17:52:30.560Z,102950.97
2019-02-26T17:55:01.430Z,102947.78
2019-02-26T17:57:34.549Z,102954.06
2019-02-26T18:00:05.415Z,102951.58
2019-02-26T18:02:35.993Z,102954.72
2019-02-26T18:05:06.981Z,102953.19
2019-02-26T18:07:38.571Z,102963.59
2019-02-26T18:10:13.527Z,102953.35
2019-02-26T18:12:44.399Z,102954.98
2019-02-26T18:15:17.569Z,102951.57
2019-02-26T18:17:57.387Z,102950.88
2019-02-26T18:20:28.751Z,102947.50
2019-02-26T18:23:00.227Z,102950.46
2019-02-26T18:25:31.591Z,102959.46
2019-02-26T18:28:02.102Z,102960.21
2019-02-26T18:30:32.609Z,102953.77
2019-02-26T18:33:03.140Z,102960.11
2019-02-26T18:35:33.537Z,102956.44
2019-02-26T18:38:04.130Z,102958.84
2019-02-26T18:40:34.694Z,102951.27
2019-02-26T18:43:05.498Z,102958.34
2019-02-26T18:45:36.082Z,102956.00
2019-02-26T18:48:06.681Z,102953.21
2019-02-26T18:50:39.052Z,102954.52
2019-02-26T18:53:11.745Z,102943.11
2019-02-26T18:55:41.736Z,102944.34
2019-02-26T18:58:13.722Z,102944.78
2019-02-26T19:00:44.555Z,102940.27
2019-02-26T19:03:15.226Z,102946.10
2019-02-26T19:05:45.778Z,102942.81
2019-02-26T19:08:16.227Z,102952.30
2019-02-26T19:10:46.746Z,102943.56
2019-02-26T19:13:17.261Z,102942.52
2019-02-26T19:15:48.473Z,102940.52
2019-02-26T19:18:19.170Z,102938.00
2019-02-26T19:20:49.731Z,102936.40
2019-02-26T19:23:20.246Z,102925.53
2019-02-26T19:25:50.876Z,102929.66
2019-02-26T19:28:25.849Z,102924.90
2019-02-26T19:30:54.055Z,102916.27
2019-02-26T19:33:24.713Z,102921.66
2019-02-26T19:35:55.192Z,102914.87
2019-02-26T19:38:27.664Z,102920.25
2019-02-26T19:41:00.014Z,102911.69
2019-02-26T19:43:30.670Z,102913.67
2019-02-26T19:46:02.271Z,102914.42
2019-02-26T19:48:34.003Z,102906.32
2019-02-26T19:51:04.722Z,102902.11
2019-02-26T19:53:35.315Z,102897.75
2019-02-26T19:56:05.981Z,102900.37
2019-02-26T19:58:40.581Z,102895.58
2019-02-26T20:01:09.230Z,102894.71
2019-02-26T20:03:40.858Z,102891.37
2019-02-26T20:06:11.400Z,102889.33
2019-02-26T20:08:42.035Z,102886.94
2019-02-26T20:11:12.594Z,102881.14
2019-02-26T20:13:43.109Z,102884.25
2019-02-26T20:16:14.058Z,102876.41
2019-02-26T20:18:44.607Z,102874.62
2019-02-26T20:21:18.825Z,102872.36
2019-02-26T20:23:47.443Z,102874.92
2019-02-26T20:26:18.090Z,102871.39
2019-02-26T20:28:48.591Z,102865.38
2019-02-26T20:31:21.937Z,102871.41
2019-02-26T20:33:52.190Z,102873.13
2019-02-26T20:36:22.734Z,102861.36
2019-02-26T20:38:53.300Z,102858.09
2019-02-26T20:41:23.895Z,102854.78
2019-02-26T20:43:54.410Z,102854.89
2019-02-26T20:46:25.674Z,102854.89
2019-02-26T20:48:56.276Z,102848.03
2019-02-26T20:51:27.627Z,102851.53
2019-02-26T20:53:58.422Z,102854.13
2019-02-26T20:56:30.972Z,102855.91
2019-02-26T20:59:01.445Z,102858.10
2019-02-26T21:01:32.524Z,102858.20
2019-02-26T21:04:03.717Z,102856.97
2019-02-26T21:06:34.324Z,102852.69
2019-02-26T21:09:07.187Z,102861.05
2019-02-26T21:11:38.407Z,102851.29
2019-02-26T21:14:09.113Z,102851.29
2019-02-26T21:16:39.872Z,102854.45
2019-02-26T21:19:10.501Z,102853.70
2019-02-26T21:21:41.042Z,102844.69
2019-02-26T21:24:11.791Z,102843.19
2019-02-26T21:26:42.294Z,102847.65
2019-02-26T21:29:13.672Z,102846.81
2019-02-26T21:31:44.305Z,102840.80
2019-02-26T21:34:14.936Z,102836.11
2019-02-26T21:36:45.518Z,102832.24
2019-02-26T21:39:16.176Z,102830.98
2019-02-26T21:41:46.782Z,102837.11
2019-02-26T21:44:17.387Z,102841.14
2019-02-26T21:46:47.951Z,102837.71
2019-02-26T21:49:18.643Z,102839.51
2019-02-26T21:51:49.504Z,102836.80
2019-02-26T21:54:24.518Z,102836.72
2019-02-26T21:56:54.571Z,102835.73
2019-02-26T21:59:25.706Z,102821.88
2019-02-26T22:01:56.697Z,102836.45
2019-02-26T22:05:13.500Z,102830.53
2019-02-26T22:07:52.105Z,102833.95
2019-02-26T22:10:26.472Z,102830.12
2019-02-26T22:16:36.601Z,102817.98
2019-02-26T22:19:13.205Z,102818.39
2019-02-26T22:21:52.748Z,102811.36
2019-02-26T22:24:23.849Z,102813.55
2019-02-26T22:26:59.351Z,102818.44
2019-02-26T22:29:27.067Z,102817.13
2019-02-26T22:32:02.551Z,102816.33
2019-02-26T22:34:33.275Z,102814.64
2019-02-26T22:37:07.032Z,102808.91
2019-02-26T22:39:36.230Z,102810.23
2019-02-26T22:42:08.125Z,102804.52
2019-02-26T22:44:39.225Z,102803.29
2019-02-26T22:47:09.879Z,102803.37
2019-02-26T22:49:40.438Z,102796.04
2019-02-26T22:52:11.047Z,102799.15
2019-02-26T22:54:43.510Z,102801.36
2019-02-26T22:57:13.971Z,102801.38
2019-02-26T22:59:44.544Z,102803.13
2019-02-26T23:02:15.275Z,102798.41
2019-02-26T23:04:45.907Z,102802.03
2019-02-26T23:07:16.538Z,102799.46
2019-02-26T23:09:47.345Z,102798.70
2019-02-26T23:12:19.688Z,102797.53
2019-02-26T23:14:50.463Z,102791.11
2019-02-26T23:17:24.662Z,102796.87
2019-02-26T23:19:53.588Z,102794.77
2019-02-26T23:22:24.215Z,102796.26
2019-02-26T23:24:54.795Z,102792.44
2019-02-26T23:27:26.246Z,102793.75
2019-02-26T23:29:56.865Z,102789.55
2019-02-26T23:32:28.540Z,102799.41
2019-02-26T23:35:08.898Z,102793.73
2019-02-26T23:37:39.565Z,102790.22
2019-02-26T23:40:11.380Z,102794.53
2019-02-26T23:42:41.980Z,102794.13
2019-02-26T23:45:12.994Z,102794.56
2019-02-26T23:47:44.155Z,102794.95
2019-02-26T23:50:14.758Z,102793.36
2019-02-26T23:52:45.370Z,102790.89
2019-02-26T23:55:15.933Z,102794.75
2019-02-26T23:57:46.565Z,102795.13
